sensor_id;sensor_type;location;lat;lon;timestamp;P1;durP1;ratioP1;P2;durP2;ratioP2
595;SDS011;19946;49.306;11.350;2022-09-03T00:01:51;5.60;;;5.60;;
595;SDS011;19946;49.306;11.350;2022-09-03T00:05:09;5.20;;;5.20;;
595;SDS011;19946;49.306;11.350;2022-09-03T00:08:29;5.10;;;5.10;;
595;SDS011;19946;49.306;11.350;2022-09-03T00:14:46;5.00;;;5.00;;
595;SDS011;19946;49.306;11.350;2022-09-03T00:17:54;5.20;;;5.20;;
595;SDS011;19946;49.306;11.350;2022-09-03T00:21:02;5.37;;;5.37;;
595;SDS011;19946;49.306;11.350;2022-09-03T00:24:09;5.03;;;5.03;;
595;SDS011;19946;49.306;11.350;2022-09-03T00:27:14;5.50;;;5.50;;
595;SDS011;19946;49.306;11.350;2022-09-03T00:30:19;5.40;;;5.40;;
595;SDS011;19946;49.306;11.350;2022-09-03T00:33:21;5.30;;;5.30;;
595;SDS011;19946;49.306;11.350;2022-09-03T00:36:27;5.37;;;5.37;;
595;SDS011;19946;49.306;11.350;2022-09-03T00:39:35;5.10;;;5.10;;
595;SDS011;19946;49.306;11.350;2022-09-03T00:42:49;5.43;;;5.43;;
595;SDS011;19946;49.306;11.350;2022-09-03T01:00:10;4.90;;;4.90;;
595;SDS011;19946;49.306;11.350;2022-09-03T01:10:03;5.30;;;5.30;;
595;SDS011;19946;49.306;11.350;2022-09-03T01:13:16;4.93;;;4.93;;
595;SDS011;19946;49.306;11.350;2022-09-03T01:16:27;5.07;;;5.07;;
595;SDS011;19946;49.306;11.350;2022-09-03T01:36:07;5.20;;;5.20;;
595;SDS011;19946;49.306;11.350;2022-09-03T01:39:18;4.77;;;4.77;;
595;SDS011;19946;49.306;11.350;2022-09-03T01:45:53;5.00;;;5.00;;
595;SDS011;19946;49.306;11.350;2022-09-03T01:52:11;5.10;;;5.10;;
595;SDS011;19946;49.306;11.350;2022-09-03T02:02:21;4.80;;;4.80;;
595;SDS011;19946;49.306;11.350;2022-09-03T02:05:25;5.10;;;5.10;;
595;SDS011;19946;49.306;11.350;2022-09-03T02:08:26;5.10;;;5.10;;
595;SDS011;19946;49.306;11.350;2022-09-03T02:11:27;4.93;;;4.93;;
595;SDS011;19946;49.306;11.350;2022-09-03T02:14:27;4.87;;;4.87;;
595;SDS011;19946;49.306;11.350;2022-09-03T02:17:32;5.13;;;5.13;;
595;SDS011;19946;49.306;11.350;2022-09-03T02:20:34;5.20;;;5.20;;
595;SDS011;19946;49.306;11.350;2022-09-03T02:23:34;5.00;;;5.00;;
595;SDS011;19946;49.306;11.350;2022-09-03T02:26:37;5.17;;;5.17;;
595;SDS011;19946;49.306;11.350;2022-09-03T02:29:38;5.10;;;5.10;;
595;SDS011;19946;49.306;11.350;2022-09-03T02:32:38;5.20;;;5.20;;
595;SDS011;19946;49.306;11.350;2022-09-03T02:35:39;5.07;;;5.07;;
595;SDS011;19946;49.306;11.350;2022-09-03T02:38:41;5.30;;;5.30;;
595;SDS011;19946;49.306;11.350;2022-09-03T02:41:42;5.10;;;5.10;;
595;SDS011;19946;49.306;11.350;2022-09-03T02:44:45;5.10;;;5.10;;
595;SDS011;19946;49.306;11.350;2022-09-03T02:47:50;5.00;;;5.00;;
595;SDS011;19946;49.306;11.350;2022-09-03T02:50:54;5.10;;;5.10;;
595;SDS011;19946;49.306;11.350;2022-09-03T02:53:55;5.00;;;5.00;;
595;SDS011;19946;49.306;11.350;2022-09-03T02:56:55;5.20;;;5.20;;
595;SDS011;19946;49.306;11.350;2022-09-03T02:59:55;5.30;;;5.30;;
595;SDS011;19946;49.306;11.350;2022-09-03T03:02:56;5.77;;;5.67;;
595;SDS011;19946;49.306;11.350;2022-09-03T03:05:57;5.90;;;5.80;;
595;SDS011;19946;49.306;11.350;2022-09-03T03:09:00;5.47;;;5.47;;
595;SDS011;19946;49.306;11.350;2022-09-03T03:12:04;5.67;;;5.63;;
595;SDS011;19946;49.306;11.350;2022-09-03T03:15:06;5.30;;;5.30;;
595;SDS011;19946;49.306;11.350;2022-09-03T03:18:06;5.87;;;5.77;;
595;SDS011;19946;49.306;11.350;2022-09-03T03:21:12;5.80;;;5.70;;
595;SDS011;19946;49.306;11.350;2022-09-03T03:24:14;6.10;;;5.90;;
595;SDS011;19946;49.306;11.350;2022-09-03T03:27:14;5.60;;;5.50;;
595;SDS011;19946;49.306;11.350;2022-09-03T03:30:15;6.30;;;6.10;;
595;SDS011;19946;49.306;11.350;2022-09-03T03:33:15;5.33;;;5.23;;
595;SDS011;19946;49.306;11.350;2022-09-03T03:36:16;5.80;;;5.60;;
595;SDS011;19946;49.306;11.350;2022-09-03T03:39:16;6.20;;;5.90;;
595;SDS011;19946;49.306;11.350;2022-09-03T03:42:16;6.10;;;5.80;;
595;SDS011;19946;49.306;11.350;2022-09-03T03:45:17;6.20;;;6.00;;
595;SDS011;19946;49.306;11.350;2022-09-03T03:48:17;5.90;;;5.70;;
595;SDS011;19946;49.306;11.350;2022-09-03T03:51:18;6.70;;;6.30;;
595;SDS011;19946;49.306;11.350;2022-09-03T03:54:18;5.50;;;5.30;;
595;SDS011;19946;49.306;11.350;2022-09-03T03:57:19;5.73;;;5.53;;
595;SDS011;19946;49.306;11.350;2022-09-03T04:00:20;8.77;;;7.97;;
595;SDS011;19946;49.306;11.350;2022-09-03T04:03:21;7.03;;;6.53;;
595;SDS011;19946;49.306;11.350;2022-09-03T04:06:21;5.60;;;5.30;;
595;SDS011;19946;49.306;11.350;2022-09-03T04:09:21;6.17;;;5.87;;
595;SDS011;19946;49.306;11.350;2022-09-03T04:12:22;5.50;;;5.30;;
595;SDS011;19946;49.306;11.350;2022-09-03T04:15:22;5.77;;;5.57;;
595;SDS011;19946;49.306;11.350;2022-09-03T04:18:22;5.70;;;5.50;;
595;SDS011;19946;49.306;11.350;2022-09-03T04:21:24;5.70;;;5.50;;
595;SDS011;19946;49.306;11.350;2022-09-03T04:24:25;5.70;;;5.50;;
595;SDS011;19946;49.306;11.350;2022-09-03T04:27:26;6.00;;;5.70;;
595;SDS011;19946;49.306;11.350;2022-09-03T04:30:26;5.60;;;5.40;;
595;SDS011;19946;49.306;11.350;2022-09-03T04:33:27;6.77;;;6.23;;
595;SDS011;19946;49.306;11.350;2022-09-03T04:36:28;5.40;;;5.20;;
595;SDS011;19946;49.306;11.350;2022-09-03T04:39:29;5.60;;;5.40;;
595;SDS011;19946;49.306;11.350;2022-09-03T04:42:30;5.20;;;5.00;;
595;SDS011;19946;49.306;11.350;2022-09-03T04:45:30;6.60;;;6.17;;
595;SDS011;19946;49.306;11.350;2022-09-03T04:48:31;5.33;;;5.13;;
595;SDS011;19946;49.306;11.350;2022-09-03T04:51:32;5.07;;;4.87;;
595;SDS011;19946;49.306;11.350;2022-09-03T04:54:33;5.60;;;5.40;;
595;SDS011;19946;49.306;11.350;2022-09-03T04:57:33;5.93;;;5.73;;
595;SDS011;19946;49.306;11.350;2022-09-03T05:00:36;6.70;;;6.30;;
595;SDS011;19946;49.306;11.350;2022-09-03T05:03:37;6.13;;;5.83;;
595;SDS011;19946;49.306;11.350;2022-09-03T05:06:38;5.47;;;5.33;;
595;SDS011;19946;49.306;11.350;2022-09-03T05:09:38;5.90;;;5.67;;
595;SDS011;19946;49.306;11.350;2022-09-03T05:12:38;5.10;;;5.10;;
595;SDS011;19946;49.306;11.350;2022-09-03T05:15:39;6.30;;;6.10;;
595;SDS011;19946;49.306;11.350;2022-09-03T05:18:43;5.50;;;5.40;;
595;SDS011;19946;49.306;11.350;2022-09-03T05:21:44;5.50;;;5.40;;
595;SDS011;19946;49.306;11.350;2022-09-03T05:24:44;5.20;;;5.10;;
595;SDS011;19946;49.306;11.350;2022-09-03T05:27:44;5.40;;;5.20;;
595;SDS011;19946;49.306;11.350;2022-09-03T05:30:45;6.70;;;6.30;;
595;SDS011;19946;49.306;11.350;2022-09-03T05:33:47;4.90;;;4.90;;
595;SDS011;19946;49.306;11.350;2022-09-03T05:36:49;5.00;;;5.00;;
595;SDS011;19946;49.306;11.350;2022-09-03T05:39:49;4.97;;;4.97;;
595;SDS011;19946;49.306;11.350;2022-09-03T05:42:53;4.87;;;4.87;;
595;SDS011;19946;49.306;11.350;2022-09-03T05:46:00;5.30;;;5.30;;
595;SDS011;19946;49.306;11.350;2022-09-03T05:49:05;5.30;;;5.30;;
595;SDS011;19946;49.306;11.350;2022-09-03T05:52:06;5.37;;;5.37;;
595;SDS011;19946;49.306;11.350;2022-09-03T05:55:07;5.10;;;5.10;;
595;SDS011;19946;49.306;11.350;2022-09-03T05:58:08;5.20;;;5.20;;
595;SDS011;19946;49.306;11.350;2022-09-03T06:01:12;4.93;;;4.93;;
595;SDS011;19946;49.306;11.350;2022-09-03T06:04:14;5.13;;;5.13;;
595;SDS011;19946;49.306;11.350;2022-09-03T06:07:15;5.20;;;5.20;;
595;SDS011;19946;49.306;11.350;2022-09-03T06:10:16;4.90;;;4.90;;
595;SDS011;19946;49.306;11.350;2022-09-03T06:13:16;6.10;;;5.90;;
595;SDS011;19946;49.306;11.350;2022-09-03T06:16:17;5.83;;;5.63;;
595;SDS011;19946;49.306;11.350;2022-09-03T06:19:17;5.30;;;5.20;;
595;SDS011;19946;49.306;11.350;2022-09-03T06:22:19;4.80;;;4.80;;
595;SDS011;19946;49.306;11.350;2022-09-03T06:25:19;5.80;;;5.70;;
595;SDS011;19946;49.306;11.350;2022-09-03T06:28:20;5.20;;;5.20;;
595;SDS011;19946;49.306;11.350;2022-09-03T06:31:21;5.50;;;5.50;;
595;SDS011;19946;49.306;11.350;2022-09-03T06:34:22;5.40;;;5.40;;
595;SDS011;19946;49.306;11.350;2022-09-03T06:37:26;5.90;;;5.80;;
595;SDS011;19946;49.306;11.350;2022-09-03T06:40:26;5.60;;;5.60;;
595;SDS011;19946;49.306;11.350;2022-09-03T06:43:28;6.13;;;6.03;;
595;SDS011;19946;49.306;11.350;2022-09-03T06:46:32;6.60;;;6.50;;
595;SDS011;19946;49.306;11.350;2022-09-03T06:49:34;6.20;;;6.10;;
595;SDS011;19946;49.306;11.350;2022-09-03T06:52:35;6.43;;;6.33;;
595;SDS011;19946;49.306;11.350;2022-09-03T06:55:35;5.80;;;5.70;;
595;SDS011;19946;49.306;11.350;2022-09-03T06:58:40;5.90;;;5.80;;
595;SDS011;19946;49.306;11.350;2022-09-03T07:01:44;5.80;;;5.70;;
595;SDS011;19946;49.306;11.350;2022-09-03T07:04:44;5.80;;;5.80;;
595;SDS011;19946;49.306;11.350;2022-09-03T07:07:45;6.07;;;5.97;;
595;SDS011;19946;49.306;11.350;2022-09-03T07:10:45;5.97;;;5.87;;
595;SDS011;19946;49.306;11.350;2022-09-03T07:13:47;6.10;;;6.00;;
595;SDS011;19946;49.306;11.350;2022-09-03T07:16:49;6.10;;;6.00;;
595;SDS011;19946;49.306;11.350;2022-09-03T07:19:50;5.70;;;5.70;;
595;SDS011;19946;49.306;11.350;2022-09-03T07:22:53;6.07;;;5.97;;
595;SDS011;19946;49.306;11.350;2022-09-03T07:25:54;6.10;;;6.00;;
595;SDS011;19946;49.306;11.350;2022-09-03T07:28:56;6.00;;;5.90;;
595;SDS011;19946;49.306;11.350;2022-09-03T07:31:57;6.57;;;6.47;;
595;SDS011;19946;49.306;11.350;2022-09-03T07:34:57;6.33;;;6.23;;
595;SDS011;19946;49.306;11.350;2022-09-03T07:37:57;6.60;;;6.50;;
595;SDS011;19946;49.306;11.350;2022-09-03T07:41:01;6.33;;;6.23;;
595;SDS011;19946;49.306;11.350;2022-09-03T07:44:07;6.90;;;6.80;;
595;SDS011;19946;49.306;11.350;2022-09-03T07:47:08;6.27;;;6.17;;
595;SDS011;19946;49.306;11.350;2022-09-03T07:50:09;6.20;;;6.10;;
595;SDS011;19946;49.306;11.350;2022-09-03T07:53:10;6.10;;;6.00;;
595;SDS011;19946;49.306;11.350;2022-09-03T07:56:11;6.13;;;6.03;;
595;SDS011;19946;49.306;11.350;2022-09-03T07:59:12;6.07;;;5.97;;
595;SDS011;19946;49.306;11.350;2022-09-03T08:02:13;6.30;;;6.20;;
595;SDS011;19946;49.306;11.350;2022-09-03T08:05:13;6.20;;;6.10;;
595;SDS011;19946;49.306;11.350;2022-09-03T08:08:14;6.20;;;6.10;;
595;SDS011;19946;49.306;11.350;2022-09-03T08:11:15;6.57;;;6.47;;
595;SDS011;19946;49.306;11.350;2022-09-03T08:14:18;6.20;;;6.10;;
595;SDS011;19946;49.306;11.350;2022-09-03T08:17:19;5.80;;;5.80;;
595;SDS011;19946;49.306;11.350;2022-09-03T08:20:19;6.00;;;5.90;;
595;SDS011;19946;49.306;11.350;2022-09-03T08:23:20;5.93;;;5.83;;
595;SDS011;19946;49.306;11.350;2022-09-03T08:26:20;5.53;;;5.53;;
595;SDS011;19946;49.306;11.350;2022-09-03T08:29:21;6.10;;;6.00;;
595;SDS011;19946;49.306;11.350;2022-09-03T08:32:22;6.30;;;6.20;;
595;SDS011;19946;49.306;11.350;2022-09-03T08:35:22;6.20;;;6.10;;
595;SDS011;19946;49.306;11.350;2022-09-03T08:38:23;5.80;;;5.80;;
595;SDS011;19946;49.306;11.350;2022-09-03T08:44:39;5.40;;;5.40;;
595;SDS011;19946;49.306;11.350;2022-09-03T08:47:51;5.80;;;5.70;;
595;SDS011;19946;49.306;11.350;2022-09-03T08:51:04;5.90;;;5.80;;
595;SDS011;19946;49.306;11.350;2022-09-03T08:54:08;5.63;;;5.63;;
595;SDS011;19946;49.306;11.350;2022-09-03T08:57:11;5.70;;;5.70;;
595;SDS011;19946;49.306;11.350;2022-09-03T09:00:13;6.10;;;6.00;;
595;SDS011;19946;49.306;11.350;2022-09-03T09:13:28;7.50;;;7.30;;
595;SDS011;19946;49.306;11.350;2022-09-03T09:23:34;7.40;;;7.30;;
595;SDS011;19946;49.306;11.350;2022-09-03T09:26:40;6.40;;;6.30;;
595;SDS011;19946;49.306;11.350;2022-09-03T09:29:40;6.50;;;6.40;;
595;SDS011;19946;49.306;11.350;2022-09-03T09:32:41;6.30;;;6.20;;
595;SDS011;19946;49.306;11.350;2022-09-03T09:35:42;6.20;;;6.10;;
595;SDS011;19946;49.306;11.350;2022-09-03T09:38:44;6.50;;;6.40;;
595;SDS011;19946;49.306;11.350;2022-09-03T09:41:56;6.30;;;6.20;;
595;SDS011;19946;49.306;11.350;2022-09-03T09:45:07;6.17;;;6.07;;
595;SDS011;19946;49.306;11.350;2022-09-03T09:51:30;7.17;;;7.07;;
595;SDS011;19946;49.306;11.350;2022-09-03T09:54:31;7.47;;;7.27;;
595;SDS011;19946;49.306;11.350;2022-09-03T09:57:31;6.70;;;6.60;;
595;SDS011;19946;49.306;11.350;2022-09-03T10:00:31;6.97;;;6.87;;
595;SDS011;19946;49.306;11.350;2022-09-03T10:03:33;6.10;;;6.00;;
595;SDS011;19946;49.306;11.350;2022-09-03T10:06:34;6.20;;;6.10;;
595;SDS011;19946;49.306;11.350;2022-09-03T10:09:58;5.87;;;5.77;;
595;SDS011;19946;49.306;11.350;2022-09-03T10:16:15;5.67;;;5.60;;
595;SDS011;19946;49.306;11.350;2022-09-03T10:19:27;5.97;;;5.87;;
595;SDS011;19946;49.306;11.350;2022-09-03T10:22:38;6.03;;;5.93;;
595;SDS011;19946;49.306;11.350;2022-09-03T10:28:57;4.77;;;4.77;;
595;SDS011;19946;49.306;11.350;2022-09-03T10:38:28;4.97;;;4.97;;
595;SDS011;19946;49.306;11.350;2022-09-03T10:41:45;4.60;;;4.60;;
595;SDS011;19946;49.306;11.350;2022-09-03T10:51:27;4.67;;;4.67;;
595;SDS011;19946;49.306;11.350;2022-09-03T10:58:13;4.80;;;4.80;;
595;SDS011;19946;49.306;11.350;2022-09-03T11:01:42;5.33;;;5.33;;
595;SDS011;19946;49.306;11.350;2022-09-03T11:08:05;4.40;;;4.40;;
595;SDS011;19946;49.306;11.350;2022-09-03T11:11:22;4.70;;;4.70;;
595;SDS011;19946;49.306;11.350;2022-09-03T11:14:31;4.90;;;4.90;;
595;SDS011;19946;49.306;11.350;2022-09-03T11:17:52;4.83;;;4.83;;
595;SDS011;19946;49.306;11.350;2022-09-03T11:21:15;5.00;;;5.00;;
595;SDS011;19946;49.306;11.350;2022-09-03T11:24:23;4.80;;;4.80;;
595;SDS011;19946;49.306;11.350;2022-09-03T11:34:11;4.80;;;4.80;;
595;SDS011;19946;49.306;11.350;2022-09-03T11:37:27;4.33;;;4.33;;
595;SDS011;19946;49.306;11.350;2022-09-03T11:40:35;4.50;;;4.50;;
595;SDS011;19946;49.306;11.350;2022-09-03T11:43:37;4.43;;;4.43;;
595;SDS011;19946;49.306;11.350;2022-09-03T11:46:39;4.60;;;4.60;;
595;SDS011;19946;49.306;11.350;2022-09-03T11:49:43;4.30;;;4.30;;
595;SDS011;19946;49.306;11.350;2022-09-03T11:52:47;4.13;;;4.13;;
595;SDS011;19946;49.306;11.350;2022-09-03T11:59:00;4.70;;;4.70;;
595;SDS011;19946;49.306;11.350;2022-09-03T12:05:39;4.50;;;4.50;;
595;SDS011;19946;49.306;11.350;2022-09-03T12:15:35;5.20;;;5.17;;
595;SDS011;19946;49.306;11.350;2022-09-03T12:18:40;7.30;;;7.20;;
595;SDS011;19946;49.306;11.350;2022-09-03T12:21:41;5.47;;;5.43;;
595;SDS011;19946;49.306;11.350;2022-09-03T12:24:42;5.30;;;5.30;;
595;SDS011;19946;49.306;11.350;2022-09-03T12:27:43;6.40;;;6.30;;
595;SDS011;19946;49.306;11.350;2022-09-03T12:30:45;6.13;;;6.03;;
595;SDS011;19946;49.306;11.350;2022-09-03T12:33:46;5.13;;;5.13;;
595;SDS011;19946;49.306;11.350;2022-09-03T12:36:50;4.93;;;4.90;;
595;SDS011;19946;49.306;11.350;2022-09-03T12:39:53;5.13;;;5.07;;
595;SDS011;19946;49.306;11.350;2022-09-03T12:42:54;5.53;;;5.47;;
595;SDS011;19946;49.306;11.350;2022-09-03T12:46:13;5.00;;;5.00;;
595;SDS011;19946;49.306;11.350;2022-09-03T12:49:14;5.20;;;5.20;;
595;SDS011;19946;49.306;11.350;2022-09-03T12:52:25;5.73;;;5.67;;
595;SDS011;19946;49.306;11.350;2022-09-03T12:58:58;5.00;;;5.00;;
595;SDS011;19946;49.306;11.350;2022-09-03T13:02:12;4.97;;;4.97;;
595;SDS011;19946;49.306;11.350;2022-09-03T13:05:42;5.33;;;5.33;;
595;SDS011;19946;49.306;11.350;2022-09-03T13:08:46;4.87;;;4.87;;
595;SDS011;19946;49.306;11.350;2022-09-03T13:11:50;4.73;;;4.73;;
595;SDS011;19946;49.306;11.350;2022-09-03T13:14:51;4.70;;;4.70;;
595;SDS011;19946;49.306;11.350;2022-09-03T13:17:54;4.93;;;4.93;;
595;SDS011;19946;49.306;11.350;2022-09-03T13:34:06;3.40;;;3.40;;
595;SDS011;19946;49.306;11.350;2022-09-03T13:37:24;3.47;;;3.47;;
595;SDS011;19946;49.306;11.350;2022-09-03T13:44:06;3.40;;;3.40;;
595;SDS011;19946;49.306;11.350;2022-09-03T13:50:41;3.30;;;3.30;;
595;SDS011;19946;49.306;11.350;2022-09-03T13:54:03;2.97;;;2.97;;
595;SDS011;19946;49.306;11.350;2022-09-03T14:00:51;3.00;;;3.00;;
595;SDS011;19946;49.306;11.350;2022-09-03T14:04:02;3.23;;;3.23;;
595;SDS011;19946;49.306;11.350;2022-09-03T14:07:07;3.20;;;3.20;;
595;SDS011;19946;49.306;11.350;2022-09-03T14:10:18;3.10;;;3.10;;
595;SDS011;19946;49.306;11.350;2022-09-03T14:17:01;3.30;;;3.30;;
595;SDS011;19946;49.306;11.350;2022-09-03T14:23:30;4.13;;;4.13;;
595;SDS011;19946;49.306;11.350;2022-09-03T14:26:48;3.63;;;3.63;;
595;SDS011;19946;49.306;11.350;2022-09-03T14:30:02;4.00;;;4.00;;
595;SDS011;19946;49.306;11.350;2022-09-03T14:36:52;4.30;;;4.30;;
595;SDS011;19946;49.306;11.350;2022-09-03T14:43:52;3.90;;;3.90;;
595;SDS011;19946;49.306;11.350;2022-09-03T14:47:14;3.80;;;3.80;;
595;SDS011;19946;49.306;11.350;2022-09-03T14:54:19;4.20;;;4.20;;
595;SDS011;19946;49.306;11.350;2022-09-03T15:00:54;4.10;;;4.10;;
595;SDS011;19946;49.306;11.350;2022-09-03T15:10:42;5.50;;;5.50;;
595;SDS011;19946;49.306;11.350;2022-09-03T15:13:52;4.10;;;4.10;;
595;SDS011;19946;49.306;11.350;2022-09-03T15:23:54;4.20;;;4.20;;
595;SDS011;19946;49.306;11.350;2022-09-03T15:30:23;3.80;;;3.80;;
595;SDS011;19946;49.306;11.350;2022-09-03T15:33:35;3.70;;;3.70;;
595;SDS011;19946;49.306;11.350;2022-09-03T15:36:50;4.20;;;4.20;;
595;SDS011;19946;49.306;11.350;2022-09-03T15:39:59;4.40;;;4.40;;
595;SDS011;19946;49.306;11.350;2022-09-03T15:46:32;4.33;;;4.27;;
595;SDS011;19946;49.306;11.350;2022-09-03T15:52:58;4.13;;;4.07;;
595;SDS011;19946;49.306;11.350;2022-09-03T15:56:05;4.50;;;4.40;;
595;SDS011;19946;49.306;11.350;2022-09-03T15:59:20;4.27;;;4.17;;
595;SDS011;19946;49.306;11.350;2022-09-03T16:09:34;4.40;;;4.30;;
595;SDS011;19946;49.306;11.350;2022-09-03T16:12:59;4.60;;;4.50;;
595;SDS011;19946;49.306;11.350;2022-09-03T16:16:07;4.80;;;4.70;;
595;SDS011;19946;49.306;11.350;2022-09-03T16:19:29;4.40;;;4.30;;
595;SDS011;19946;49.306;11.350;2022-09-03T16:22:44;4.43;;;4.33;;
595;SDS011;19946;49.306;11.350;2022-09-03T16:25:49;5.40;;;5.30;;
595;SDS011;19946;49.306;11.350;2022-09-03T16:28:59;4.30;;;4.30;;
595;SDS011;19946;49.306;11.350;2022-09-03T16:32:26;4.77;;;4.67;;
595;SDS011;19946;49.306;11.350;2022-09-03T16:51:55;4.23;;;4.13;;
595;SDS011;19946;49.306;11.350;2022-09-03T16:58:24;4.13;;;4.03;;
595;SDS011;19946;49.306;11.350;2022-09-03T17:14:34;3.23;;;3.23;;
595;SDS011;19946;49.306;11.350;2022-09-03T17:21:26;3.50;;;3.40;;
595;SDS011;19946;49.306;11.350;2022-09-03T17:24:37;3.97;;;3.77;;
595;SDS011;19946;49.306;11.350;2022-09-03T17:31:18;4.20;;;4.00;;
595;SDS011;19946;49.306;11.350;2022-09-03T17:34:32;3.70;;;3.50;;
595;SDS011;19946;49.306;11.350;2022-09-03T17:41:22;2.97;;;2.77;;
595;SDS011;19946;49.306;11.350;2022-09-03T17:48:07;3.67;;;3.47;;
595;SDS011;19946;49.306;11.350;2022-09-03T17:54:48;2.47;;;2.37;;
595;SDS011;19946;49.306;11.350;2022-09-03T17:57:53;2.20;;;2.10;;
595;SDS011;19946;49.306;11.350;2022-09-03T18:01:17;3.43;;;3.23;;
595;SDS011;19946;49.306;11.350;2022-09-03T18:04:41;2.60;;;2.50;;
595;SDS011;19946;49.306;11.350;2022-09-03T18:07:57;2.20;;;2.10;;
595;SDS011;19946;49.306;11.350;2022-09-03T18:14:10;2.20;;;2.20;;
595;SDS011;19946;49.306;11.350;2022-09-03T18:17:22;2.13;;;2.13;;
595;SDS011;19946;49.306;11.350;2022-09-03T18:20:31;3.10;;;3.03;;
595;SDS011;19946;49.306;11.350;2022-09-03T18:24:10;2.50;;;2.50;;
595;SDS011;19946;49.306;11.350;2022-09-03T18:31:21;2.47;;;2.37;;
595;SDS011;19946;49.306;11.350;2022-09-03T18:34:40;1.60;;;1.60;;
595;SDS011;19946;49.306;11.350;2022-09-03T18:38:03;2.20;;;2.10;;
595;SDS011;19946;49.306;11.350;2022-09-03T18:55:37;2.70;;;2.67;;
595;SDS011;19946;49.306;11.350;2022-09-03T19:06:38;3.73;;;3.63;;
595;SDS011;19946;49.306;11.350;2022-09-03T19:10:19;4.33;;;4.20;;
595;SDS011;19946;49.306;11.350;2022-09-03T19:13:43;5.00;;;4.80;;
595;SDS011;19946;49.306;11.350;2022-09-03T19:17:06;5.57;;;5.40;;
595;SDS011;19946;49.306;11.350;2022-09-03T19:20:44;5.37;;;5.17;;
595;SDS011;19946;49.306;11.350;2022-09-03T19:24:29;5.23;;;4.90;;
595;SDS011;19946;49.306;11.350;2022-09-03T19:31:44;4.57;;;4.47;;
595;SDS011;19946;49.306;11.350;2022-09-03T19:35:16;3.87;;;3.87;;
595;SDS011;19946;49.306;11.350;2022-09-03T19:38:44;6.87;;;6.30;;
595;SDS011;19946;49.306;11.350;2022-09-03T19:42:34;5.50;;;5.30;;
595;SDS011;19946;49.306;11.350;2022-09-03T19:49:58;3.20;;;3.00;;
595;SDS011;19946;49.306;11.350;2022-09-03T19:53:29;1.70;;;1.70;;
595;SDS011;19946;49.306;11.350;2022-09-03T19:56:53;1.30;;;1.30;;
595;SDS011;19946;49.306;11.350;2022-09-03T20:00:14;2.27;;;2.27;;
595;SDS011;19946;49.306;11.350;2022-09-03T20:03:33;2.40;;;2.40;;
595;SDS011;19946;49.306;11.350;2022-09-03T20:06:53;2.50;;;2.50;;
595;SDS011;19946;49.306;11.350;2022-09-03T20:10:13;3.00;;;3.00;;
595;SDS011;19946;49.306;11.350;2022-09-03T20:13:22;2.90;;;2.90;;
595;SDS011;19946;49.306;11.350;2022-09-03T20:16:26;3.60;;;3.60;;
595;SDS011;19946;49.306;11.350;2022-09-03T20:19:40;8.10;;;7.90;;
595;SDS011;19946;49.306;11.350;2022-09-03T20:23:02;3.10;;;3.10;;
595;SDS011;19946;49.306;11.350;2022-09-03T20:59:32;4.80;;;4.80;;
595;SDS011;19946;49.306;11.350;2022-09-03T21:09:48;5.53;;;5.53;;
595;SDS011;19946;49.306;11.350;2022-09-03T21:13:12;4.90;;;4.90;;
595;SDS011;19946;49.306;11.350;2022-09-03T21:16:36;4.20;;;4.20;;
595;SDS011;19946;49.306;11.350;2022-09-03T21:19:42;4.80;;;4.80;;
595;SDS011;19946;49.306;11.350;2022-09-03T21:23:14;5.07;;;5.07;;
595;SDS011;19946;49.306;11.350;2022-09-03T21:26:22;5.70;;;5.70;;
595;SDS011;19946;49.306;11.350;2022-09-03T21:29:28;7.00;;;6.90;;
595;SDS011;19946;49.306;11.350;2022-09-03T21:32:36;7.20;;;7.10;;
595;SDS011;19946;49.306;11.350;2022-09-03T21:35:43;6.77;;;6.67;;
595;SDS011;19946;49.306;11.350;2022-09-03T21:39:05;6.90;;;6.80;;
595;SDS011;19946;49.306;11.350;2022-09-03T21:42:14;6.20;;;6.10;;
595;SDS011;19946;49.306;11.350;2022-09-03T21:45:32;6.80;;;6.70;;
595;SDS011;19946;49.306;11.350;2022-09-03T21:48:38;5.57;;;5.57;;
595;SDS011;19946;49.306;11.350;2022-09-03T21:51:46;4.70;;;4.70;;
595;SDS011;19946;49.306;11.350;2022-09-03T21:54:55;4.30;;;4.30;;
595;SDS011;19946;49.306;11.350;2022-09-03T22:01:13;6.00;;;5.90;;
595;SDS011;19946;49.306;11.350;2022-09-03T22:04:25;6.40;;;6.30;;
595;SDS011;19946;49.306;11.350;2022-09-03T22:11:27;6.00;;;5.90;;
595;SDS011;19946;49.306;11.350;2022-09-03T22:14:35;5.60;;;5.60;;
595;SDS011;19946;49.306;11.350;2022-09-03T22:24:47;5.13;;;5.13;;
595;SDS011;19946;49.306;11.350;2022-09-03T22:28:05;6.73;;;6.63;;
595;SDS011;19946;49.306;11.350;2022-09-03T22:31:14;10.50;;;10.30;;
595;SDS011;19946;49.306;11.350;2022-09-03T22:34:54;10.50;;;10.30;;
595;SDS011;19946;49.306;11.350;2022-09-03T22:41:19;8.40;;;8.30;;
595;SDS011;19946;49.306;11.350;2022-09-03T22:47:50;6.50;;;6.40;;
595;SDS011;19946;49.306;11.350;2022-09-03T22:50:57;5.93;;;5.83;;
595;SDS011;19946;49.306;11.350;2022-09-03T22:57:26;9.37;;;9.27;;
595;SDS011;19946;49.306;11.350;2022-09-03T23:00:44;7.90;;;7.80;;
595;SDS011;19946;49.306;11.350;2022-09-03T23:03:55;8.20;;;8.10;;
595;SDS011;19946;49.306;11.350;2022-09-03T23:07:05;7.20;;;7.10;;
595;SDS011;19946;49.306;11.350;2022-09-03T23:10:20;6.50;;;6.40;;
595;SDS011;19946;49.306;11.350;2022-09-03T23:13:27;6.00;;;5.90;;
595;SDS011;19946;49.306;11.350;2022-09-03T23:16:35;6.30;;;6.20;;
595;SDS011;19946;49.306;11.350;2022-09-03T23:19:41;5.80;;;5.80;;
595;SDS011;19946;49.306;11.350;2022-09-03T23:23:07;5.60;;;5.60;;
595;SDS011;19946;49.306;11.350;2022-09-03T23:26:15;4.80;;;4.80;;
595;SDS011;19946;49.306;11.350;2022-09-03T23:29:27;5.10;;;5.10;;
595;SDS011;19946;49.306;11.350;2022-09-03T23:32:35;5.60;;;5.60;;
595;SDS011;19946;49.306;11.350;2022-09-03T23:35:45;6.80;;;6.70;;
595;SDS011;19946;49.306;11.350;2022-09-03T23:39:02;6.20;;;6.10;;
